Time;durP1;ratioP1;P1;durP2;ratioP2;P2;SDS_P1;SDS_P2;PMS_P1;PMS_P2;Temp;Humidity;BMP_temperature;BMP_pressure;BME280_temperature;BME280_humidity;BME280_pressure;Samples;Min_cycle;Max_cycle;Signal;HPM_P1;HPM_P2
2023/05/31 00:01:06;;;;;;;10.15;4.63;;;12.20;99.90;;;;;;5064832;28;20051;-62
2023/05/31 00:03:33;;;;;;;9.55;4.45;;;12.30;99.90;;;;;;5066295;28;20041;-61
2023/05/31 00:06:01;;;;;;;10.80;4.70;;;12.30;99.90;;;;;;5068944;28;20044;-62
2023/05/31 00:08:27;;;;;;;12.48;4.72;;;12.30;99.90;;;;;;5069574;28;20051;-61
2023/05/31 00:10:54;;;;;;;8.57;5.05;;;12.30;99.90;;;;;;5068243;28;20048;-62
2023/05/31 00:13:21;;;;;;;9.60;5.03;;;12.20;99.90;;;;;;5071146;28;20068;-61
2023/05/31 00:15:48;;;;;;;8.98;4.95;;;12.20;99.90;;;;;;5062975;28;20138;-62
2023/05/31 00:18:15;;;;;;;7.85;4.60;;;12.20;99.90;;;;;;5065523;28;20115;-61
2023/05/31 00:20:42;;;;;;;7.68;4.65;;;12.20;99.90;;;;;;5063085;28;20054;-60
2023/05/31 00:23:10;;;;;;;9.10;4.75;;;12.10;99.90;;;;;;5068887;28;20131;-61
2023/05/31 00:25:36;;;;;;;10.00;5.03;;;12.00;99.90;;;;;;5070063;28;20051;-61
2023/05/31 00:28:03;;;;;;;8.65;4.90;;;12.00;99.90;;;;;;5063064;28;20040;-62
2023/05/31 00:30:30;;;;;;;8.43;4.88;;;12.00;99.90;;;;;;5069423;28;20635;-61
2023/05/31 00:32:57;;;;;;;10.70;4.95;;;12.00;99.90;;;;;;5069729;28;20128;-61
2023/05/31 00:35:23;;;;;;;9.00;4.80;;;12.00;99.90;;;;;;5060926;28;20053;-62
2023/05/31 00:37:50;;;;;;;8.95;4.28;;;11.90;99.90;;;;;;5069813;28;20041;-61
2023/05/31 00:40:17;;;;;;;16.25;5.03;;;11.90;99.90;;;;;;5070722;28;20051;-61
2023/05/31 00:42:44;;;;;;;8.82;4.35;;;11.80;99.90;;;;;;5069914;28;20056;-60
2023/05/31 00:45:11;;;;;;;9.63;5.28;;;11.70;99.90;;;;;;5067532;28;20033;-62
2023/05/31 00:47:38;;;;;;;10.13;4.88;;;11.70;99.90;;;;;;5067123;28;20059;-61
2023/05/31 00:50:06;;;;;;;9.38;5.43;;;11.70;99.90;;;;;;5072891;28;20125;-59
2023/05/31 00:52:34;;;;;;;8.55;4.88;;;11.70;99.90;;;;;;5074024;28;20400;-61
2023/05/31 00:55:02;;;;;;;8.55;4.90;;;11.80;99.90;;;;;;5070100;28;20440;-62
2023/05/31 00:57:29;;;;;;;8.05;4.47;;;11.70;99.90;;;;;;5075057;28;20048;-61
2023/05/31 00:59:56;;;;;;;;;;;11.70;99.90;;;;;;5066405;28;20037;-62
2023/05/31 01:02:23;;;;;;;8.20;4.07;;;11.70;99.90;;;;;;5072907;28;19921;-62
2023/05/31 01:04:50;;;;;;;9.77;4.30;;;11.70;99.90;;;;;;5071317;28;20120;-62
2023/05/31 01:07:17;;;;;;;9.20;4.82;;;11.60;99.90;;;;;;5071827;28;20098;-62
2023/05/31 01:09:44;;;;;;;9.50;5.28;;;11.60;99.90;;;;;;5061798;28;20069;-60
2023/05/31 01:12:37;;;;;;;8.65;5.18;;;11.60;99.90;;;;;;5065957;28;20045;-62
2023/05/31 01:15:17;;;;;;;8.70;4.80;;;11.60;99.90;;;;;;5073189;28;20493;-62
2023/05/31 01:18:09;;;;;;;9.13;4.63;;;11.50;99.90;;;;;;5071004;28;20048;-61
2023/05/31 01:20:39;;;;;;;11.60;5.22;;;11.40;99.90;;;;;;5068690;28;20397;-60
2023/05/31 01:23:37;;;;;;;9.43;5.25;;;11.30;99.90;;;;;;5072585;28;20044;-62
2023/05/31 01:26:32;;;;;;;9.43;5.10;;;11.20;99.90;;;;;;5074402;28;20044;-62
2023/05/31 01:29:03;;;;;;;11.50;4.88;;;11.20;99.90;;;;;;5063426;28;20095;-62
2023/05/31 01:31:33;;;;;;;13.00;5.32;;;11.10;99.90;;;;;;5065981;28;20087;-63
2023/05/31 01:34:01;;;;;;;10.07;5.20;;;11.20;99.90;;;;;;5073268;28;20078;-61
2023/05/31 01:36:27;;;;;;;11.32;5.25;;;11.20;99.90;;;;;;5072819;28;20047;-62
2023/05/31 01:38:54;;;;;;;8.07;5.53;;;11.30;99.90;;;;;;5064797;28;20057;-62
2023/05/31 01:41:25;;;;;;;7.03;4.82;;;11.30;99.90;;;;;;5074104;28;20046;-62
2023/05/31 01:43:53;;;;;;;9.60;5.18;;;11.30;99.90;;;;;;5068400;28;20033;-62
2023/05/31 01:46:21;;;;;;;7.78;4.65;;;11.30;99.90;;;;;;5072787;28;20058;-61
2023/05/31 01:48:49;;;;;;;8.20;5.07;;;11.30;99.90;;;;;;5072986;28;20060;-62
2023/05/31 01:51:16;;;;;;;18.02;5.13;;;11.30;99.90;;;;;;5069414;28;20076;-62
2023/05/31 01:53:43;;;;;;;9.45;5.32;;;11.20;99.90;;;;;;5072882;28;20047;-61
2023/05/31 01:56:11;;;;;;;9.40;5.20;;;11.10;99.90;;;;;;5071025;28;20139;-62
2023/05/31 01:58:44;;;;;;;8.23;4.78;;;11.10;99.90;;;;;;5067202;28;20048;-62
2023/05/31 02:01:12;;;;;;;8.48;5.28;;;11.10;99.90;;;;;;5065779;28;20040;-62
2023/05/31 02:03:39;;;;;;;10.93;5.20;;;11.20;99.90;;;;;;5074221;28;20532;-62
2023/05/31 02:06:06;;;;;;;10.05;5.05;;;11.10;99.90;;;;;;5064173;28;20090;-62
2023/05/31 02:08:33;;;;;;;11.95;5.75;;;11.10;99.90;;;;;;5061658;28;20048;-62
2023/05/31 02:11:00;;;;;;;11.63;5.07;;;11.00;99.90;;;;;;5060817;28;20044;-62
2023/05/31 02:13:30;;;;;;;10.45;5.10;;;11.00;99.90;;;;;;5063029;28;20037;-61
2023/05/31 02:15:57;;;;;;;10.13;5.15;;;10.90;99.90;;;;;;5068333;28;20102;-62
2023/05/31 02:18:27;;;;;;;11.93;6.00;;;10.80;99.90;;;;;;5063664;28;20072;-63
2023/05/31 02:20:55;;;;;;;9.70;6.28;;;10.70;99.90;;;;;;5064739;28;20068;-62
2023/05/31 02:23:22;;;;;;;;;;;10.70;99.90;;;;;;5061399;28;20037;-62
2023/05/31 02:25:49;;;;;;;11.35;5.07;;;10.60;99.90;;;;;;5066843;28;19927;-60
2023/05/31 02:28:17;;;;;;;8.50;5.18;;;10.60;99.90;;;;;;5071337;28;20151;-62
2023/05/31 02:30:59;;;;;;;9.30;5.25;;;10.50;99.90;;;;;;5071838;28;20079;-60
2023/05/31 02:33:27;;;;;;;7.35;5.25;;;10.50;99.90;;;;;;5060796;28;20044;-62
2023/05/31 02:35:56;;;;;;;14.85;5.65;;;10.60;99.90;;;;;;5068315;28;20187;-62
2023/05/31 02:38:23;;;;;;;9.95;5.55;;;10.60;99.90;;;;;;5063359;28;20040;-62
2023/05/31 02:40:50;;;;;;;9.10;5.32;;;10.60;99.90;;;;;;5065863;28;20041;-61
2023/05/31 02:43:17;;;;;;;8.88;5.22;;;10.70;99.90;;;;;;5070517;28;20051;-61
2023/05/31 02:45:44;;;;;;;9.30;5.43;;;10.60;99.90;;;;;;5070173;28;20135;-62
2023/05/31 02:48:11;;;;;;;11.70;5.43;;;10.60;99.90;;;;;;5061633;28;20094;-62
2023/05/31 02:50:40;;;;;;;10.43;5.50;;;10.50;99.90;;;;;;5066627;28;20068;-63
2023/05/31 02:53:21;;;;;;;9.40;5.50;;;10.60;99.90;;;;;;5070903;28;20533;-62
2023/05/31 02:55:56;;;;;;;10.77;6.18;;;10.60;99.90;;;;;;5063788;28;20068;-62
2023/05/31 02:58:40;;;;;;;8.25;4.80;;;10.60;99.90;;;;;;5060120;28;20052;-62
2023/05/31 03:01:30;;;;;;;8.30;5.25;;;10.60;99.90;;;;;;5064932;28;20044;-62
2023/05/31 03:04:13;;;;;;;11.50;5.65;;;10.60;99.90;;;;;;5069179;28;20051;-61
2023/05/31 03:06:40;;;;;;;10.27;5.60;;;10.50;99.90;;;;;;5064278;28;20040;-62
2023/05/31 03:09:07;;;;;;;9.65;5.13;;;10.50;99.90;;;;;;5070578;28;20052;-62
2023/05/31 03:11:35;;;;;;;10.27;5.45;;;10.40;99.90;;;;;;5069612;28;20127;-61
2023/05/31 03:14:02;;;;;;;6.65;5.15;;;10.50;99.90;;;;;;5071043;28;20493;-62
2023/05/31 03:16:44;;;;;;;11.45;5.68;;;10.50;99.90;;;;;;5056589;28;20049;-61
2023/05/31 03:19:14;;;;;;;8.20;5.07;;;10.50;99.90;;;;;;5062707;28;20055;-62
2023/05/31 03:21:44;;;;;;;8.52;4.85;;;10.50;99.90;;;;;;5070716;28;20040;-62
2023/05/31 03:24:11;;;;;;;9.73;5.57;;;10.50;99.90;;;;;;5067952;28;20045;-62
2023/05/31 03:26:38;;;;;;;9.63;5.63;;;10.60;99.90;;;;;;5071862;28;20037;-61
2023/05/31 03:29:05;;;;;;;11.93;5.50;;;10.50;99.90;;;;;;5067154;28;20052;-62
2023/05/31 03:31:33;;;;;;;9.05;5.50;;;10.60;99.90;;;;;;5067986;28;20125;-60
2023/05/31 03:34:01;;;;;;;6.43;4.72;;;10.60;99.90;;;;;;5070453;28;20040;-61
2023/05/31 03:36:28;;;;;;;8.32;4.85;;;10.60;99.90;;;;;;5068147;28;20075;-62
2023/05/31 03:38:56;;;;;;;10.10;5.63;;;10.60;99.90;;;;;;5070488;28;20081;-61
2023/05/31 03:41:23;;;;;;;10.95;5.90;;;10.60;99.90;;;;;;5070166;28;20585;-61
2023/05/31 03:43:51;;;;;;;8.80;5.07;;;10.50;99.90;;;;;;5064023;28;20106;-61
2023/05/31 03:46:18;;;;;;;10.02;5.60;;;10.60;99.90;;;;;;5071407;28;20036;-62
2023/05/31 03:48:47;;;;;;;8.82;5.30;;;10.60;99.90;;;;;;5069734;28;20045;-62
2023/05/31 03:51:14;;;;;;;7.38;5.13;;;10.60;99.90;;;;;;5067078;28;20372;-62
2023/05/31 03:53:41;;;;;;;6.40;4.82;;;10.60;99.90;;;;;;5071515;28;20037;-62
2023/05/31 03:56:08;;;;;;;9.13;5.57;;;10.60;99.90;;;;;;5069057;28;20044;-62
2023/05/31 03:58:34;;;;;;;11.70;5.70;;;10.60;99.90;;;;;;5068930;28;20086;-61
2023/05/31 04:01:02;;;;;;;10.20;5.50;;;10.50;99.90;;;;;;5069955;28;20489;-63
2023/05/31 04:03:29;;;;;;;10.93;5.88;;;10.50;99.90;;;;;;5069383;28;20455;-62
2023/05/31 04:05:56;;;;;;;14.20;6.60;;;10.50;99.90;;;;;;5069115;28;20473;-62
2023/05/31 04:08:23;;;;;;;12.07;6.30;;;10.60;99.90;;;;;;5067142;28;20524;-62
2023/05/31 04:10:50;;;;;;;9.35;6.65;;;10.60;99.90;;;;;;5052978;28;20098;-62
2023/05/31 04:13:17;;;;;;;16.20;7.55;;;10.70;99.90;;;;;;5064788;28;20052;-61
2023/05/31 04:15:44;;;;;;;15.75;6.82;;;10.70;99.90;;;;;;5069741;28;20045;-60
2023/05/31 04:18:11;;;;;;;10.15;7.25;;;10.80;99.90;;;;;;5066779;28;20071;-62
2023/05/31 04:20:38;;;;;;;15.23;6.15;;;10.80;99.90;;;;;;5069326;28;20079;-60
2023/05/31 04:23:05;;;;;;;12.38;6.28;;;10.80;99.90;;;;;;5068825;28;20036;-61
2023/05/31 04:25:32;;;;;;;9.63;5.95;;;10.70;99.90;;;;;;5067332;28;20124;-60
2023/05/31 04:27:59;;;;;;;12.95;6.55;;;10.70;99.90;;;;;;5064867;28;20048;-62
2023/05/31 04:30:27;;;;;;;15.45;6.65;;;10.60;99.90;;;;;;5066341;28;20040;-61
2023/05/31 04:32:56;;;;;;;11.18;6.38;;;10.60;99.90;;;;;;5070069;28;20048;-60
2023/05/31 04:35:23;;;;;;;14.35;6.60;;;10.60;99.90;;;;;;5068341;28;20127;-62
2023/05/31 04:37:52;;;;;;;8.55;5.78;;;10.70;99.90;;;;;;5079203;28;20120;-62
2023/05/31 04:40:20;;;;;;;10.85;6.38;;;10.70;99.90;;;;;;5067767;28;20053;-62
2023/05/31 04:42:48;;;;;;;11.73;6.85;;;10.80;99.90;;;;;;5063877;28;20501;-61
2023/05/31 04:45:25;;;;;;;15.32;7.32;;;10.90;99.90;;;;;;5063817;28;20393;-62
2023/05/31 04:47:52;;;;;;;16.25;7.80;;;11.00;99.90;;;;;;5067517;28;20186;-61
2023/05/31 04:50:19;;;;;;;13.05;7.45;;;11.10;99.90;;;;;;5068700;28;20047;-62
2023/05/31 04:52:46;;;;;;;14.52;7.70;;;11.10;99.90;;;;;;5059989;28;20131;-61
2023/05/31 04:55:13;;;;;;;13.48;7.68;;;11.10;99.90;;;;;;5069234;28;20045;-62
2023/05/31 04:57:41;;;;;;;15.23;8.32;;;11.20;99.90;;;;;;5065086;28;20533;-63
2023/05/31 05:00:12;;;;;;;19.38;8.20;;;11.20;99.90;;;;;;5058644;28;20037;-62
2023/05/31 05:02:47;;;;;;;;;;;11.30;99.90;;;;;;5063835;28;20037;-63
2023/05/31 05:05:15;;;;;;;9.70;6.88;;;11.30;99.90;;;;;;5069085;28;19924;-62
2023/05/31 05:07:43;;;;;;;13.25;7.95;;;11.40;99.90;;;;;;5069559;28;20178;-62
2023/05/31 05:10:10;;;;;;;11.00;7.18;;;11.40;99.90;;;;;;5065222;28;20508;-62
2023/05/31 05:12:36;;;;;;;12.68;7.57;;;11.40;99.90;;;;;;5065859;28;20071;-61
2023/05/31 05:15:05;;;;;;;14.52;7.88;;;11.50;99.90;;;;;;5060837;28;20136;-61
2023/05/31 05:17:32;;;;;;;17.02;8.20;;;11.50;99.90;;;;;;5068672;28;20048;-61
2023/05/31 05:19:59;;;;;;;14.32;8.02;;;11.60;99.90;;;;;;5063588;28;20152;-62
2023/05/31 05:22:28;;;;;;;11.27;7.72;;;11.90;99.90;;;;;;5057302;28;20037;-62
2023/05/31 05:24:55;;;;;;;11.80;7.90;;;12.00;99.90;;;;;;5068663;28;20090;-61
2023/05/31 05:27:23;;;;;;;11.35;7.80;;;12.10;99.90;;;;;;5067147;28;20071;-61
2023/05/31 05:29:53;;;;;;;11.75;7.22;;;12.20;99.90;;;;;;5044811;28;20079;-62
2023/05/31 05:32:21;;;;;;;10.27;7.68;;;12.20;99.90;;;;;;5072543;28;20055;-63
2023/05/31 05:34:48;;;;;;;16.10;7.65;;;12.20;99.90;;;;;;5070116;28;20041;-62
2023/05/31 05:37:15;;;;;;;11.55;7.03;;;12.30;99.90;;;;;;5071972;28;20051;-62
2023/05/31 05:39:42;;;;;;;14.73;7.97;;;12.30;99.90;;;;;;5073500;28;20485;-62
2023/05/31 05:42:09;;;;;;;13.43;8.60;;;12.30;99.90;;;;;;5072656;28;20041;-62
2023/05/31 05:44:35;;;;;;;16.88;8.65;;;12.40;99.90;;;;;;5069728;28;20516;-62
2023/05/31 05:47:03;;;;;;;14.30;7.47;;;12.50;99.90;;;;;;5072806;28;20072;-60
2023/05/31 05:49:30;;;;;;;12.10;7.13;;;12.50;99.90;;;;;;5063089;28;20503;-62
2023/05/31 05:51:57;;;;;;;15.35;7.65;;;12.60;99.90;;;;;;5073845;28;20051;-62
2023/05/31 05:54:24;;;;;;;11.80;7.82;;;12.70;99.90;;;;;;5072227;28;20048;-62
2023/05/31 05:56:51;;;;;;;14.73;7.90;;;12.80;99.90;;;;;;5060129;28;20501;-62
2023/05/31 05:59:18;;;;;;;13.07;7.55;;;12.80;99.90;;;;;;5061700;28;20481;-62
2023/05/31 06:01:58;;;;;;;12.32;6.80;;;12.90;99.90;;;;;;5072400;28;20040;-62
2023/05/31 06:04:25;;;;;;;13.60;6.90;;;13.00;99.90;;;;;;5070651;28;20044;-62
2023/05/31 06:06:52;;;;;;;15.15;7.22;;;13.10;99.90;;;;;;5058821;28;20096;-62
2023/05/31 06:09:18;;;;;;;11.93;7.30;;;13.20;99.90;;;;;;5071887;28;20123;-61
2023/05/31 06:11:46;;;;;;;12.95;6.57;;;13.20;99.90;;;;;;5072223;28;20219;-62
2023/05/31 06:14:13;;;;;;;11.40;7.47;;;13.30;99.90;;;;;;5062443;28;20466;-60
2023/05/31 06:16:44;;;;;;;11.20;6.55;;;13.40;99.90;;;;;;5065207;28;20428;-62
2023/05/31 06:19:12;;;;;;;12.20;6.80;;;13.40;99.90;;;;;;5063909;28;20036;-62
2023/05/31 06:21:40;;;;;;;11.70;6.78;;;13.60;99.90;;;;;;5060081;28;20087;-62
2023/05/31 06:24:06;;;;;;;10.70;6.22;;;13.60;99.90;;;;;;5066758;28;20036;-62
2023/05/31 06:26:35;;;;;;;11.52;6.45;;;13.70;99.90;;;;;;5071097;28;20099;-61
2023/05/31 06:29:03;;;;;;;12.50;6.75;;;13.90;99.90;;;;;;5063429;28;20044;-62
2023/05/31 06:31:59;;;;;;;12.02;5.90;;;13.90;99.90;;;;;;5010116;28;20056;-62
2023/05/31 06:34:30;;;;;;;11.43;6.70;;;14.10;99.90;;;;;;5068972;28;20055;-62
2023/05/31 06:37:00;;;;;;;10.98;6.72;;;14.20;99.90;;;;;;5071296;28;20044;-62
2023/05/31 06:39:27;;;;;;;9.52;6.43;;;14.30;99.90;;;;;;5071854;28;20094;-62
2023/05/31 06:41:54;;;;;;;14.77;7.22;;;14.30;99.90;;;;;;5067227;28;20085;-62
2023/05/31 06:44:42;;;;;;;10.50;6.28;;;14.50;99.90;;;;;;5063863;28;20477;-62
2023/05/31 06:47:55;;;;;;;10.90;6.70;;;14.60;99.90;;;;;;5048144;28;20063;-62
2023/05/31 06:50:47;;;;;;;14.98;6.82;;;14.90;99.90;;;;;;5062997;28;20136;-61
2023/05/31 06:53:32;;;;;;;10.38;6.50;;;15.10;99.90;;;;;;5072645;28;20060;-61
2023/05/31 06:56:21;;;;;;;9.65;6.38;;;15.30;99.90;;;;;;5070012;28;20049;-62
2023/05/31 06:58:48;;;;;;;12.20;6.72;;;15.40;99.90;;;;;;5071324;28;20482;-61
2023/05/31 07:01:15;;;;;;;11.88;5.90;;;15.50;99.90;;;;;;5069676;28;20119;-62
2023/05/31 07:03:42;;;;;;;8.70;5.80;;;15.70;99.90;;;;;;5064047;28;20056;-62
2023/05/31 07:06:09;;;;;;;10.45;6.57;;;15.80;99.90;;;;;;5070621;28;20056;-62
2023/05/31 07:08:36;;;;;;;11.45;6.30;;;15.80;99.90;;;;;;5067776;28;20076;-63
2023/05/31 07:11:30;;;;;;;12.38;7.00;;;15.80;99.90;;;;;;5070477;28;20040;-62
2023/05/31 07:14:02;;;;;;;;;;;15.90;99.90;;;;;;5070655;28;20037;-62
2023/05/31 07:16:29;;;;;;;8.88;5.50;;;15.90;99.90;;;;;;5067843;28;19921;-62
2023/05/31 07:18:58;;;;;;;8.57;6.28;;;15.90;99.90;;;;;;5070768;28;20063;-63
2023/05/31 07:21:25;;;;;;;10.63;6.38;;;15.90;99.90;;;;;;5061537;28;20044;-62
2023/05/31 07:23:51;;;;;;;13.43;6.35;;;16.00;99.90;;;;;;5071916;28;20511;-62
2023/05/31 07:26:18;;;;;;;13.80;6.40;;;16.20;99.90;;;;;;5071350;28;20464;-61
2023/05/31 07:28:45;;;;;;;8.52;5.50;;;16.30;99.90;;;;;;5072093;28;20047;-61
2023/05/31 07:31:15;;;;;;;13.93;5.97;;;16.30;99.90;;;;;;5062394;28;20228;-62
2023/05/31 07:33:43;;;;;;;8.90;5.65;;;16.30;99.90;;;;;;5071779;28;20041;-62
2023/05/31 07:36:11;;;;;;;11.80;5.35;;;16.50;99.90;;;;;;5071423;28;20401;-61
2023/05/31 07:38:37;;;;;;;;;;;16.50;99.90;;;;;;5071987;28;20040;-62
2023/05/31 07:41:04;;;;;;;13.00;6.00;;;16.60;99.90;;;;;;5062447;28;20016;-62
2023/05/31 07:43:32;;;;;;;12.15;6.55;;;16.60;99.90;;;;;;5060957;28;20565;-62
2023/05/31 07:45:59;;;;;;;8.77;6.05;;;16.70;99.90;;;;;;5068120;28;20068;-62
2023/05/31 07:48:25;;;;;;;12.13;6.28;;;16.60;99.90;;;;;;5065174;28;20044;-62
2023/05/31 07:50:52;;;;;;;12.27;6.65;;;16.60;99.90;;;;;;5060076;28;20063;-62
2023/05/31 07:53:19;;;;;;;14.82;6.40;;;16.50;99.90;;;;;;5067418;28;20451;-62
2023/05/31 07:55:46;;;;;;;9.15;6.13;;;16.50;99.90;;;;;;5070439;28;20125;-62
2023/05/31 07:58:13;;;;;;;9.57;5.63;;;16.70;99.90;;;;;;5070381;28;20048;-61
2023/05/31 08:00:39;;;;;;;8.32;5.95;;;16.90;99.90;;;;;;5066339;28;20642;-62
2023/05/31 08:03:06;;;;;;;12.77;6.00;;;17.10;99.90;;;;;;5071433;28;20036;-61
2023/05/31 08:05:33;;;;;;;11.77;6.10;;;17.00;99.90;;;;;;5070442;28;20053;-63
2023/05/31 08:08:00;;;;;;;9.93;6.07;;;17.10;99.90;;;;;;5069868;28;20044;-62
2023/05/31 08:10:27;;;;;;;11.63;6.20;;;17.10;99.90;;;;;;5063676;28;20075;-62
2023/05/31 08:12:54;;;;;;;13.20;5.38;;;17.20;99.90;;;;;;5071280;28;20044;-62
2023/05/31 08:15:21;;;;;;;;;;;17.30;99.90;;;;;;5069513;28;20413;-62
2023/05/31 08:17:48;;;;;;;11.90;6.57;;;17.40;99.90;;;;;;5070968;28;19920;-62
2023/05/31 08:20:16;;;;;;;12.77;6.10;;;17.50;99.90;;;;;;5070280;28;20481;-62
2023/05/31 08:22:44;;;;;;;15.93;6.88;;;17.50;99.90;;;;;;5067675;28;20040;-63
2023/05/31 08:25:13;;;;;;;9.52;5.72;;;17.50;99.90;;;;;;5071242;28;20047;-61
2023/05/31 08:27:43;;;;;;;9.93;5.63;;;17.60;99.90;;;;;;5070394;28;20551;-62
2023/05/31 08:30:10;;;;;;;9.38;5.55;;;17.60;99.90;;;;;;5069921;28;20036;-62
2023/05/31 08:32:38;;;;;;;15.43;6.10;;;17.80;99.90;;;;;;5070341;28;20040;-61
2023/05/31 08:35:08;;;;;;;11.07;6.38;;;17.90;99.90;;;;;;5070848;28;20425;-63
2023/05/31 08:37:36;;;;;;;10.20;6.07;;;18.10;99.90;;;;;;5070468;28;20068;-62
2023/05/31 08:40:07;;;;;;;10.02;6.28;;;18.10;99.90;;;;;;5069118;28;20058;-62
2023/05/31 08:42:47;;;;;;;11.70;6.07;;;18.10;99.90;;;;;;5068893;28;20067;-62
2023/05/31 08:45:13;;;;;;;12.68;5.72;;;18.10;99.90;;;;;;5068385;28;20581;-62
2023/05/31 08:47:50;;;;;;;13.68;6.93;;;18.20;99.90;;;;;;5070558;28;20398;-62
2023/05/31 08:50:18;;;;;;;11.60;6.30;;;18.30;99.90;;;;;;5070355;28;20047;-62
2023/05/31 08:52:45;;;;;;;11.02;5.93;;;18.40;99.90;;;;;;5070967;28;20039;-62
2023/05/31 08:55:12;;;;;;;;;;;18.70;99.90;;;;;;5063673;28;20051;-62
2023/05/31 08:57:41;;;;;;;9.57;5.32;;;18.80;99.90;;;;;;5070350;28;19952;-61
2023/05/31 09:00:10;;;;;;;10.02;5.55;;;18.80;99.90;;;;;;5067348;28;20042;-62
2023/05/31 09:02:38;;;;;;;10.88;6.00;;;18.90;99.90;;;;;;5070256;28;20127;-61
2023/05/31 09:05:10;;;;;;;;;;;19.00;99.90;;;;;;5071195;28;20389;-62
2023/05/31 09:07:38;;;;;;;11.55;5.47;;;19.00;99.90;;;;;;5066651;28;19956;-63
2023/05/31 09:10:07;;;;;;;14.40;5.80;;;19.00;99.90;;;;;;5074547;28;20515;-63
2023/05/31 09:12:34;;;;;;;11.60;6.32;;;19.00;99.90;;;;;;5074032;28;20492;-62
2023/05/31 09:15:01;;;;;;;9.18;5.63;;;19.00;99.90;;;;;;5074422;28;20055;-62
2023/05/31 09:17:28;;;;;;;9.02;5.20;;;19.00;99.90;;;;;;5071067;28;20044;-62
2023/05/31 09:19:56;;;;;;;10.18;5.22;;;19.10;99.90;;;;;;5074407;28;20111;-62
2023/05/31 09:22:23;;;;;;;10.35;5.75;;;19.10;99.90;;;;;;5064071;28;20029;-62
2023/05/31 09:24:57;;;;;;;12.18;6.45;;;19.20;99.90;;;;;;5065802;28;20119;-62
2023/05/31 09:27:26;;;;;;;11.82;5.25;;;19.40;99.90;;;;;;5073734;28;20060;-62
2023/05/31 09:29:53;;;;;;;8.85;5.80;;;19.50;99.90;;;;;;5070152;28;20040;-62
2023/05/31 09:32:20;;;;;;;12.73;5.57;;;19.50;99.90;;;;;;5074080;28;20049;-62
2023/05/31 09:34:47;;;;;;;9.15;4.95;;;19.60;99.90;;;;;;5073665;28;20050;-62
2023/05/31 09:37:22;;;;;;;10.00;6.40;;;19.80;99.90;;;;;;5068664;28;20382;-63
2023/05/31 09:39:56;;;;;;;11.68;5.70;;;19.80;99.90;;;;;;5073733;28;20044;-63
2023/05/31 09:42:27;;;;;;;9.18;4.90;;;19.90;99.90;;;;;;5073134;28;20153;-62
2023/05/31 09:44:54;;;;;;;10.68;5.47;;;20.00;99.90;;;;;;5066230;28;20433;-63
2023/05/31 09:47:26;;;;;;;14.57;5.90;;;20.00;99.90;;;;;;5068898;28;20212;-63
2023/05/31 09:49:56;;;;;;;11.15;6.00;;;20.10;99.90;;;;;;5073694;28;20068;-63
2023/05/31 09:52:27;;;;;;;12.68;5.55;;;20.20;99.90;;;;;;5073453;28;20048;-62
2023/05/31 09:54:56;;;;;;;10.05;5.25;;;20.20;99.90;;;;;;5060947;28;20048;-61
2023/05/31 09:57:39;;;;;;;7.70;5.13;;;20.20;99.90;;;;;;5072234;28;20067;-62
2023/05/31 10:00:16;;;;;;;11.27;4.95;;;20.40;99.90;;;;;;5070623;28;20139;-62
2023/05/31 10:02:47;;;;;;;7.95;5.03;;;20.50;99.90;;;;;;5072310;28;20056;-62
2023/05/31 10:05:16;;;;;;;9.30;4.72;;;20.50;99.90;;;;;;5073335;28;20137;-63
2023/05/31 10:07:48;;;;;;;9.45;4.80;;;20.70;99.90;;;;;;5073263;28;20119;-61
2023/05/31 10:10:20;;;;;;;17.15;5.88;;;20.80;99.90;;;;;;5068080;28;20405;-62
2023/05/31 10:12:58;;;;;;;10.43;5.40;;;20.90;99.90;;;;;;5072589;28;20059;-62
2023/05/31 10:15:31;;;;;;;9.82;5.25;;;20.90;99.90;;;;;;5073244;28;20111;-62
2023/05/31 10:18:01;;;;;;;13.88;4.63;;;21.10;99.90;;;;;;5066307;28;20032;-62
2023/05/31 10:20:36;;;;;;;15.23;4.72;;;21.40;99.90;;;;;;5073111;28;20098;-63
2023/05/31 10:23:09;;;;;;;13.38;4.82;;;21.40;99.90;;;;;;5072988;28;20115;-62
2023/05/31 10:25:46;;;;;;;11.45;4.65;;;21.50;99.90;;;;;;5073161;28;20599;-63
2023/05/31 10:28:17;;;;;;;10.75;4.93;;;21.50;99.90;;;;;;5067674;28;20481;-62
2023/05/31 10:30:46;;;;;;;9.02;4.90;;;21.50;99.90;;;;;;5072645;28;20047;-63
2023/05/31 10:33:14;;;;;;;11.88;4.68;;;21.50;99.90;;;;;;5072835;28;20138;-63
2023/05/31 10:35:41;;;;;;;11.52;4.35;;;21.60;99.90;;;;;;5065916;28;20175;-63
2023/05/31 10:38:08;;;;;;;;;;;21.60;99.90;;;;;;5073260;28;20043;-62
2023/05/31 10:41:04;;;;;;;7.72;4.50;;;21.60;99.90;;;;;;5072032;28;20404;-62
2023/05/31 10:43:37;;;;;;;8.27;4.40;;;21.70;99.90;;;;;;5068759;28;20040;-62
2023/05/31 10:46:10;;;;;;;9.25;4.95;;;21.60;99.90;;;;;;5072606;28;20044;-62
2023/05/31 10:48:57;;;;;;;12.48;4.20;;;21.60;99.90;;;;;;5071660;28;20048;-62
2023/05/31 10:51:45;;;;;;;8.52;4.90;;;21.60;99.90;;;;;;5066457;28;20041;-61
2023/05/31 10:54:19;;;;;;;11.13;4.68;;;21.70;99.90;;;;;;5066934;28;20371;-62
2023/05/31 10:56:54;;;;;;;10.05;4.05;;;21.80;99.90;;;;;;5063599;28;20142;-63
2023/05/31 10:59:23;;;;;;;7.63;4.28;;;21.80;99.90;;;;;;5066517;28;20055;-62
2023/05/31 11:01:53;;;;;;;11.82;4.68;;;21.80;99.90;;;;;;5070652;28;20037;-62
2023/05/31 11:04:22;;;;;;;9.27;4.70;;;22.00;99.90;;;;;;5072597;28;20490;-63
2023/05/31 11:06:53;;;;;;;10.05;4.30;;;21.90;99.90;;;;;;5060997;28;20102;-63
2023/05/31 11:09:20;;;;;;;9.18;4.18;;;21.90;99.90;;;;;;5072365;28;20048;-63
2023/05/31 11:11:49;;;;;;;9.80;4.60;;;22.00;99.90;;;;;;5071609;28;20139;-63
2023/05/31 11:14:16;;;;;;;12.00;4.10;;;22.10;99.90;;;;;;5064785;28;20135;-62
2023/05/31 11:16:53;;;;;;;8.55;3.60;;;22.10;99.90;;;;;;5061139;28;20036;-62
2023/05/31 11:19:26;;;;;;;11.65;4.30;;;22.30;99.90;;;;;;5072008;28;20044;-61
2023/05/31 11:21:59;;;;;;;11.65;4.20;;;22.40;99.90;;;;;;5071761;28;20036;-62
2023/05/31 11:24:30;;;;;;;10.00;3.97;;;22.40;99.30;;;;;;5068101;28;20036;-62
2023/05/31 11:26:59;;;;;;;11.07;4.38;;;22.50;99.50;;;;;;5063646;28;20040;-61
2023/05/31 11:29:44;;;;;;;8.00;4.03;;;22.40;99.30;;;;;;5071860;28;20052;-62
2023/05/31 11:32:12;;;;;;;7.45;3.78;;;22.40;99.50;;;;;;5061074;28;20044;-62
2023/05/31 11:34:49;;;;;;;10.35;4.47;;;22.50;99.70;;;;;;5071797;28;20040;-62
2023/05/31 11:37:16;;;;;;;10.57;3.92;;;22.60;99.00;;;;;;5063350;28;20073;-60
2023/05/31 11:39:44;;;;;;;12.20;4.78;;;22.50;98.30;;;;;;5069812;28;20045;-62
2023/05/31 11:42:11;;;;;;;7.53;3.72;;;22.50;98.10;;;;;;5070082;28;20041;-62
2023/05/31 11:44:43;;;;;;;15.18;4.03;;;22.40;98.10;;;;;;5069679;28;20528;-62
2023/05/31 11:47:10;;;;;;;10.07;4.18;;;22.40;98.70;;;;;;5070794;28;20040;-61
2023/05/31 11:49:37;;;;;;;15.90;3.97;;;22.50;97.70;;;;;;5070729;28;20047;-61
2023/05/31 11:52:05;;;;;;;9.40;4.25;;;22.60;97.90;;;;;;5070022;28;20044;-62
2023/05/31 11:54:32;;;;;;;;;;;22.50;97.80;;;;;;5068410;28;20396;-62
2023/05/31 11:57:02;;;;;;;7.90;3.80;;;22.50;97.10;;;;;;5059082;28;19921;-62
2023/05/31 11:59:33;;;;;;;9.43;3.63;;;22.70;97.00;;;;;;5067522;28;20234;-62
2023/05/31 12:02:02;;;;;;;9.93;3.92;;;22.60;97.10;;;;;;5070575;28;20040;-62
2023/05/31 12:04:30;;;;;;;7.20;3.85;;;22.70;96.20;;;;;;5069155;28;20033;-62
2023/05/31 12:06:57;;;;;;;7.72;3.42;;;22.70;97.30;;;;;;5062606;28;20066;-62
2023/05/31 12:09:25;;;;;;;7.38;3.42;;;22.70;96.70;;;;;;5071128;28;20051;-60
2023/05/31 12:11:54;;;;;;;5.72;3.60;;;22.80;97.70;;;;;;5071234;28;20046;-62
2023/05/31 12:14:22;;;;;;;9.07;3.80;;;22.90;97.80;;;;;;5061927;28;20067;-62
2023/05/31 12:16:49;;;;;;;11.73;3.80;;;23.00;97.10;;;;;;5070669;28;20052;-62
2023/05/31 12:19:17;;;;;;;8.40;3.80;;;23.10;96.10;;;;;;5070391;28;20056;-62
2023/05/31 12:21:44;;;;;;;8.07;3.30;;;23.10;95.90;;;;;;5063263;28;20045;-62
2023/05/31 12:24:15;;;;;;;10.57;4.15;;;23.30;97.30;;;;;;5071148;28;20037;-61
2023/05/31 12:26:44;;;;;;;10.52;3.83;;;23.20;95.10;;;;;;5070359;28;20079;-62
2023/05/31 12:29:12;;;;;;;8.40;3.80;;;23.20;96.20;;;;;;5070650;28;20040;-62
2023/05/31 12:31:40;;;;;;;11.30;3.92;;;23.20;96.10;;;;;;5058370;28;20049;-62
2023/05/31 12:34:08;;;;;;;8.63;3.95;;;23.10;95.40;;;;;;5071017;28;20114;-62
2023/05/31 12:36:44;;;;;;;8.88;3.78;;;23.10;96.20;;;;;;5069978;28;20154;-62
2023/05/31 12:39:17;;;;;;;5.55;3.50;;;23.20;96.30;;;;;;5070972;28;20547;-62
2023/05/31 12:41:45;;;;;;;7.60;3.55;;;23.10;95.30;;;;;;5064456;28;20049;-62
2023/05/31 12:44:13;;;;;;;8.15;3.72;;;23.20;95.50;;;;;;5070958;28;20033;-62
2023/05/31 12:46:41;;;;;;;12.75;4.10;;;23.30;95.50;;;;;;5068959;28;20123;-62
2023/05/31 12:49:27;;;;;;;8.23;3.70;;;23.30;94.20;;;;;;5070684;28;20531;-62
2023/05/31 12:51:58;;;;;;;8.88;3.58;;;23.30;94.20;;;;;;5070407;28;20045;-61
2023/05/31 12:54:26;;;;;;;10.77;3.92;;;23.30;95.00;;;;;;5068886;28;20048;-61
2023/05/31 12:56:55;;;;;;;7.38;3.63;;;23.30;94.80;;;;;;5070612;28;20040;-61